Time;durP1;ratioP1;P1;durP2;ratioP2;P2;SDS_P1;SDS_P2;PMS_P1;PMS_P2;Temp;Humidity;BMP_temperature;BMP_pressure;BME280_temperature;BME280_humidity;BME280_pressure;Samples;Min_cycle;Max_cycle;Signal;HPM_P1;HPM_P2
2022/01/24 00:03:56;;;;;;;8.73;6.30;;;;;;;5.67;100.00;103444.25;10004200;29;20450;-66
2022/01/24 00:08:52;;;;;;;9.57;5.25;;;;;;;5.65;100.00;103446.34;9997992;29;20094;-63
2022/01/24 00:29:08;;;;;;;10.38;6.47;;;;;;;5.56;100.00;103439.50;9997208;29;20561;-67
2022/01/24 00:34:05;;;;;;;10.30;6.05;;;;;;;5.50;100.00;103437.69;10005199;29;20477;-66
2022/01/24 00:39:03;;;;;;;12.45;8.18;;;;;;;5.47;100.00;103432.66;10007926;29;20079;-66
2022/01/24 00:54:47;;;;;;;12.68;6.88;;;;;;;5.40;100.00;103426.44;9998135;29;20134;-65
2022/01/24 00:59:44;;;;;;;10.18;6.68;;;;;;;5.37;100.00;103426.88;10000774;29;20060;-66
2022/01/24 01:05:40;;;;;;;12.73;7.60;;;;;;;5.34;100.00;103435.44;10011464;29;20483;-67
2022/01/24 01:20:32;;;;;;;12.60;7.80;;;;;;;5.36;100.00;103431.50;10008069;29;20566;-67
2022/01/24 01:25:28;;;;;;;10.13;6.88;;;;;;;5.44;100.00;103433.09;10003309;29;20458;-67
2022/01/24 01:30:35;;;;;;;12.10;7.50;;;;;;;5.42;100.00;103430.59;9996009;29;20067;-67
2022/01/24 01:56:16;;;;;;;11.95;6.80;;;;;;;5.37;100.00;103427.72;10002810;29;20084;-67
2022/01/24 02:01:13;;;;;;;12.10;7.53;;;;;;;5.36;100.00;103427.91;9995599;29;20068;-67
2022/01/24 02:06:11;;;;;;;12.85;7.47;;;;;;;5.24;100.00;103434.06;11053425;23;20147;-71
2022/01/24 02:11:10;;;;;;;13.77;8.85;;;;;;;5.18;100.00;103423.22;10030963;28;20071;-71
2022/01/24 02:16:23;;;;;;;10.75;8.02;;;;;;;5.16;100.00;103420.72;10068934;28;20123;-72
2022/01/24 02:21:42;;;;;;;13.93;8.85;;;;;;;5.04;100.00;103427.88;10037799;29;20040;-72
2022/01/24 02:26:39;;;;;;;16.20;8.30;;;;;;;5.09;100.00;103429.94;10038621;29;20074;-72
2022/01/24 02:36:37;;;;;;;16.73;9.20;;;;;;;5.23;100.00;103424.22;10045569;28;20058;-71
2022/01/24 02:52:09;;;;;;;12.10;8.27;;;;;;;5.16;100.00;103422.59;10038460;29;20067;-72
2022/01/24 02:57:08;;;;;;;13.10;8.70;;;;;;;5.02;100.00;103424.53;10051805;28;20139;-72
2022/01/24 03:02:05;;;;;;;12.30;8.88;;;;;;;4.99;100.00;103420.38;10029571;29;20149;-72
2022/01/24 03:07:05;;;;;;;12.25;8.52;;;;;;;5.00;100.00;103410.34;10043330;28;20044;-72
2022/01/24 03:12:11;;;;;;;14.07;7.85;;;;;;;5.04;100.00;103406.16;10024053;29;20421;-70
2022/01/24 03:17:08;;;;;;;12.93;8.00;;;;;;;5.05;100.00;103399.69;10056449;29;20098;-71
2022/01/24 03:22:04;;;;;;;10.80;7.35;;;;;;;5.00;100.00;103392.19;10059707;28;20044;-71
2022/01/24 03:27:01;;;;;;;10.10;7.07;;;;;;;4.95;100.00;103394.72;10044143;28;20106;-70
2022/01/24 03:31:57;;;;;;;10.25;7.10;;;;;;;4.88;100.00;103385.78;10061981;28;20071;-70
2022/01/24 03:36:54;;;;;;;9.45;6.60;;;;;;;4.97;100.00;103386.38;10051703;29;20198;-70
2022/01/24 03:41:50;;;;;;;11.15;6.63;;;;;;;4.88;100.00;103401.22;10026978;28;20067;-71
2022/01/24 03:46:59;;;;;;;10.23;6.20;;;;;;;5.01;100.00;103403.88;10030293;29;20055;-71
2022/01/24 03:51:55;;;;;;;9.38;6.68;;;;;;;4.95;100.00;103411.00;10037603;29;20521;-70
2022/01/24 03:56:52;;;;;;;10.50;6.95;;;;;;;4.93;100.00;103413.09;10050808;28;20051;-70
2022/01/24 04:01:48;;;;;;;9.90;5.80;;;;;;;4.94;100.00;103403.06;10059211;28;20072;-70
2022/01/24 04:06:47;;;;;;;8.90;6.13;;;;;;;4.94;100.00;103405.78;10039700;28;20044;-71
2022/01/24 04:11:44;;;;;;;12.32;6.40;;;;;;;4.85;100.00;103413.34;10011348;29;20129;-70
2022/01/24 04:16:51;;;;;;;10.90;6.78;;;;;;;4.87;100.00;103413.09;10055230;28;20323;-70
2022/01/24 04:21:49;;;;;;;12.18;7.20;;;;;;;4.91;100.00;103417.06;10038341;28;20522;-71
2022/01/24 04:26:45;;;;;;;11.48;7.80;;;;;;;4.80;100.00;103405.84;10042324;28;20490;-71
2022/01/24 04:31:44;;;;;;;12.27;7.75;;;;;;;4.76;100.00;103404.59;10038490;29;20058;-71
2022/01/24 04:36:40;;;;;;;11.38;7.38;;;;;;;4.74;100.00;103412.09;10028014;29;20401;-66
2022/01/24 04:41:41;;;;;;;10.82;7.45;;;;;;;4.82;100.00;103409.13;10076009;28;20051;-67
2022/01/24 04:57:32;;;;;;;10.90;7.78;;;;;;;4.54;100.00;103400.47;10048991;28;20142;-66
2022/01/24 05:02:28;;;;;;;14.40;8.50;;;;;;;4.46;100.00;103411.53;9999237;29;20060;-65
2022/01/24 05:07:25;;;;;;;16.30;8.93;;;;;;;4.59;100.00;103408.78;10040704;28;20050;-65
2022/01/24 05:12:35;;;;;;;16.35;10.38;;;;;;;4.64;100.00;103411.69;10035491;28;20553;-65
2022/01/24 05:28:02;;;;;;;14.65;9.77;;;;;;;4.61;100.00;103406.69;10026631;28;20131;-66
2022/01/24 05:32:59;;;;;;;13.43;9.30;;;;;;;4.57;100.00;103411.72;10020069;29;20059;-70
2022/01/24 05:37:56;;;;;;;15.30;9.38;;;;;;;4.58;100.00;103413.38;10033573;29;20679;-67
2022/01/24 05:42:53;;;;;;;18.45;9.15;;;;;;;4.57;100.00;103416.28;10035243;28;20044;-67
2022/01/24 05:47:49;;;;;;;17.75;9.75;;;;;;;4.60;100.00;103415.88;10044657;28;20140;-68
2022/01/24 05:52:46;;;;;;;16.35;11.07;;;;;;;4.64;100.00;103419.81;10007329;29;20637;-69
2022/01/24 05:57:43;;;;;;;18.90;10.68;;;;;;;4.65;100.00;103416.09;10046294;28;20572;-69
2022/01/24 06:02:40;;;;;;;15.90;10.77;;;;;;;4.72;100.00;103414.19;10028784;28;20060;-68
2022/01/24 06:07:38;;;;;;;16.83;10.05;;;;;;;4.62;100.00;103430.06;10022159;29;20043;-68
2022/01/24 06:12:35;;;;;;;15.93;10.55;;;;;;;4.79;100.00;103436.69;10023581;29;20757;-69
2022/01/24 06:17:32;;;;;;;16.42;10.48;;;;;;;4.72;100.00;103435.88;10020108;29;20048;-67
2022/01/24 06:22:28;;;;;;;15.48;9.88;;;;;;;4.69;100.00;103425.47;10031230;28;20047;-67
2022/01/24 06:27:25;;;;;;;16.77;10.95;;;;;;;4.58;100.00;103428.81;10020448;29;20067;-68
2022/01/24 06:32:21;;;;;;;18.80;10.93;;;;;;;4.56;100.00;103430.91;10057812;28;20098;-68
2022/01/24 06:37:17;;;;;;;20.83;12.82;;;;;;;4.48;100.00;103440.09;10063428;28;20679;-68
2022/01/24 06:42:21;;;;;;;21.92;13.27;;;;;;;4.66;100.00;103436.69;10033356;29;20048;-68
2022/01/24 06:47:18;;;;;;;20.63;13.30;;;;;;;4.72;100.00;103435.88;10057581;28;20106;-69
2022/01/24 06:52:15;;;;;;;25.15;14.05;;;;;;;4.74;100.00;103428.38;10021877;28;20056;-68
2022/01/24 06:57:13;;;;;;;22.77;13.50;;;;;;;4.72;100.00;103435.88;10030332;29;20054;-68
2022/01/24 07:02:11;;;;;;;22.90;14.88;;;;;;;4.56;100.00;103437.13;10044361;28;20110;-67
2022/01/24 07:07:09;;;;;;;23.38;14.77;;;;;;;4.67;100.00;103437.56;10048522;28;20063;-68
2022/01/24 07:12:07;;;;;;;24.20;14.77;;;;;;;4.68;100.00;103428.38;10020138;29;20482;-68
2022/01/24 07:17:14;;;;;;;23.13;15.27;;;;;;;4.63;100.00;103427.13;10025010;29;20044;-67
2022/01/24 07:22:10;;;;;;;25.75;14.68;;;;;;;4.75;100.00;103430.00;10031596;29;20107;-68
2022/01/24 07:27:08;;;;;;;28.02;14.85;;;;;;;4.70;100.00;103427.13;10036506;29;20071;-68
2022/01/24 07:32:04;;;;;;;25.65;14.57;;;;;;;4.72;100.00;103435.88;10037711;28;20525;-68
2022/01/24 07:37:01;;;;;;;23.35;13.90;;;;;;;4.68;100.00;103439.22;10051075;28;20565;-68
2022/01/24 07:42:03;;;;;;;22.83;14.57;;;;;;;4.74;100.00;103443.81;10039211;29;20112;-69
2022/01/24 07:47:00;;;;;;;23.95;14.00;;;;;;;4.60;100.00;103437.56;10019210;28;20103;-70
2022/01/24 07:51:57;;;;;;;33.38;18.02;;;;;;;4.51;100.00;103434.25;10015967;29;20079;-70
2022/01/24 07:56:54;;;;;;;32.67;18.85;;;;;;;4.63;100.00;103435.25;10022306;29;20150;-70
2022/01/24 08:01:51;;;;;;;34.70;19.30;;;;;;;4.69;100.00;103424.59;10025199;28;20072;-69
2022/01/24 08:06:49;;;;;;;32.90;17.75;;;;;;;4.65;100.00;103429.63;10035065;28;20058;-74
2022/01/24 08:11:45;;;;;;;35.33;20.40;;;;;;;4.74;100.00;103427.53;10027216;28;20048;-74
2022/01/24 08:16:43;;;;;;;37.30;21.33;;;;;;;4.64;100.00;103422.53;10020186;29;20528;-74
2022/01/24 08:21:40;;;;;;;39.28;24.15;;;;;;;4.60;100.00;103432.16;10025711;29;20048;-74
2022/01/24 08:26:36;;;;;;;40.88;23.10;;;;;;;4.61;100.00;103428.38;10036050;28;20083;-75
2022/01/24 08:31:36;;;;;;;43.63;25.92;;;;;;;4.70;100.00;103416.28;10023379;29;20189;-74
2022/01/24 08:36:34;;;;;;;46.65;24.67;;;;;;;4.77;100.00;103421.69;10030521;28;20120;-74
2022/01/24 08:41:41;;;;;;;41.30;24.15;;;;;;;4.82;100.00;103430.00;10019313;29;20047;-75
2022/01/24 08:46:37;;;;;;;46.15;25.80;;;;;;;4.82;100.00;103430.00;10015563;28;20044;-75
2022/01/24 08:51:34;;;;;;;42.50;23.95;;;;;;;4.91;100.00;103434.16;10017158;28;20087;-75
2022/01/24 08:56:38;;;;;;;41.70;25.10;;;;;;;4.81;100.00;103428.34;10020440;29;20052;-75
2022/01/24 09:01:35;;;;;;;44.20;24.52;;;;;;;4.73;100.00;103426.69;10018525;28;20147;-75
2022/01/24 09:06:32;;;;;;;41.03;23.80;;;;;;;4.56;100.00;103420.88;10027892;28;20055;-74
2022/01/24 09:11:31;;;;;;;46.03;26.23;;;;;;;4.63;100.00;103421.69;10020650;28;20055;-75
2022/01/24 09:16:28;;;;;;;49.10;28.85;;;;;;;4.68;100.00;103407.53;10020311;28;20051;-74
2022/01/24 09:21:28;;;;;;;47.80;28.08;;;;;;;4.74;100.00;103419.41;10018116;29;20134;-75
2022/01/24 09:26:24;;;;;;;52.67;29.27;;;;;;;4.70;100.00;103426.28;10028763;28;20055;-74
2022/01/24 09:31:22;;;;;;;52.65;31.42;;;;;;;4.81;100.00;103421.03;10018268;28;20137;-74
2022/01/24 09:36:19;;;;;;;45.28;26.55;;;;;;;4.76;100.00;103426.28;10026923;29;20046;-75
2022/01/24 09:41:16;;;;;;;47.63;27.33;;;;;;;4.72;100.00;103419.59;10034884;28;20056;-74
2022/01/24 09:46:13;;;;;;;46.65;26.77;;;;;;;4.80;100.00;103419.38;10043083;28;20055;-74
2022/01/24 09:51:10;;;;;;;52.85;30.70;;;;;;;4.84;100.00;103412.47;10040003;28;20078;-74
2022/01/24 09:56:07;;;;;;;51.72;30.10;;;;;;;4.91;100.00;103411.63;10029250;28;20052;-74
2022/01/24 10:01:07;;;;;;;44.63;25.33;;;;;;;4.85;100.00;103408.75;10034232;29;20122;-75
2022/01/24 10:06:04;;;;;;;45.63;25.02;;;;;;;4.82;100.00;103422.69;9990713;29;1058842;-73
2022/01/24 10:11:05;;;;;;;53.72;25.38;;;;;;;4.75;100.00;103418.34;10028821;28;20043;-72
2022/01/24 10:16:36;;;;;;;48.30;27.27;;;;;;;4.93;100.00;103409.53;10027341;29;20055;-72
2022/01/24 10:21:42;;;;;;;45.70;24.42;;;;;;;4.81;100.00;103412.91;10020698;28;20044;-75
2022/01/24 10:26:39;;;;;;;41.60;23.38;;;;;;;4.82;100.00;103414.56;10026740;28;20092;-75
2022/01/24 10:31:44;;;;;;;43.47;22.90;;;;;;;4.87;100.00;103421.22;10037366;28;20071;-75
2022/01/24 10:36:46;;;;;;;42.78;21.90;;;;;;;4.87;100.00;103415.81;10032231;28;20066;-75
2022/01/24 10:46:48;;;;;;;40.50;21.10;;;;;;;5.06;100.00;103404.09;10039667;28;20044;-75
2022/01/24 10:51:45;;;;;;;41.22;21.42;;;;;;;5.00;100.00;103402.22;10030997;29;20055;-75
2022/01/24 10:56:44;;;;;;;37.63;20.35;;;;;;;4.94;100.00;103401.19;10049547;28;20134;-76
2022/01/24 11:01:44;;;;;;;39.10;19.13;;;;;;;4.95;100.00;103396.59;10031347;29;20474;-77
2022/01/24 11:06:50;;;;;;;38.42;20.15;;;;;;;4.99;100.00;103397.81;10038103;28;20055;-75
2022/01/24 11:11:46;;;;;;;36.08;19.08;;;;;;;4.94;100.00;103389.50;10042097;28;20067;-75
2022/01/24 11:16:43;;;;;;;38.92;19.63;;;;;;;4.77;100.00;103395.41;10047691;28;20052;-75
2022/01/24 11:21:44;;;;;;;40.90;19.48;;;;;;;4.85;100.00;103381.63;10010352;29;20055;-75
2022/01/24 11:26:40;;;;;;;39.20;19.80;;;;;;;4.81;100.00;103380.38;10011224;29;20056;-75
2022/01/24 11:31:44;;;;;;;45.80;21.70;;;;;;;4.94;100.00;103367.81;10010882;29;20068;-75
2022/01/24 11:36:43;;;;;;;38.20;18.52;;;;;;;4.79;100.00;103371.63;10004647;29;20071;-75
2022/01/24 11:41:41;;;;;;;43.30;21.38;;;;;;;4.88;100.00;103368.69;10011204;29;20096;-75
2022/01/24 11:46:48;;;;;;;43.72;21.00;;;;;;;4.89;100.00;103370.34;10008980;29;20463;-75
2022/01/24 11:51:49;;;;;;;45.70;24.05;;;;;;;4.99;100.00;103359.84;10030484;28;20051;-75
2022/01/24 11:56:46;;;;;;;44.55;23.40;;;;;;;4.98;100.00;103364.47;10024795;28;20045;-74
2022/01/24 12:01:43;;;;;;;41.42;22.02;;;;;;;4.90;100.00;103369.28;10030429;28;20134;-74
2022/01/24 12:07:17;;;;;;;51.97;26.70;;;;;;;4.91;100.00;103368.25;10037124;28;20040;-74
2022/01/24 12:12:47;;;;;;;62.15;31.40;;;;;;;4.82;100.00;103373.91;10037270;28;20066;-74
2022/01/24 12:17:51;;;;;;;54.45;30.63;;;;;;;4.82;100.00;103368.47;10036180;28;20110;-74
2022/01/24 12:22:49;;;;;;;62.92;31.52;;;;;;;4.84;100.00;103355.53;10026864;28;20138;-74
2022/01/24 12:28:18;;;;;;;60.58;31.95;;;;;;;4.88;100.00;103347.81;10027135;29;20044;-74
2022/01/24 12:33:29;;;;;;;57.15;31.52;;;;;;;4.98;100.00;103331.09;10030015;28;20113;-75
2022/01/24 12:38:25;;;;;;;62.28;32.78;;;;;;;4.84;100.00;103336.56;10052820;28;20043;-74
2022/01/24 12:43:40;;;;;;;51.08;24.73;;;;;;;4.70;100.00;103334.97;10044819;29;20616;-75
2022/01/24 12:48:37;;;;;;;62.45;32.53;;;;;;;4.84;100.00;103336.56;10019314;28;20510;-74
2022/01/24 12:53:39;;;;;;;56.67;29.88;;;;;;;4.79;100.00;103332.84;10020855;29;20075;-74
2022/01/24 12:58:41;;;;;;;66.93;32.67;;;;;;;4.80;100.00;103335.34;10028409;29;20067;-75
2022/01/24 13:03:59;;;;;;;60.85;29.98;;;;;;;4.82;100.00;103333.25;10071455;28;20123;-74
2022/01/24 13:09:19;;;;;;;63.22;32.13;;;;;;;4.78;100.00;103332.03;10035048;28;20416;-72
2022/01/24 13:14:30;;;;;;;63.83;32.10;;;;;;;4.79;100.00;103327.44;10036146;28;20090;-72
2022/01/24 13:25:16;;;;;;;46.15;25.98;;;;;;;4.79;100.00;103319.31;10015444;28;20565;-77
2022/01/24 13:30:14;;;;;;;46.53;23.80;;;;;;;4.66;100.00;103317.47;10019098;28;20051;-74
2022/01/24 13:35:17;;;;;;;41.92;23.60;;;;;;;4.70;100.00;103324.13;10016656;28;20123;-75
2022/01/24 13:40:14;;;;;;;40.60;22.48;;;;;;;4.61;100.00;103314.56;10009487;28;20135;-74
2022/01/24 13:45:11;;;;;;;41.78;24.45;;;;;;;4.71;100.00;103306.84;10021816;29;20051;-75
2022/01/24 13:50:16;;;;;;;41.45;23.92;;;;;;;4.74;100.00;103309.09;10022587;29;20106;-74
2022/01/24 13:55:14;;;;;;;42.72;24.38;;;;;;;4.66;100.00;103311.22;10040247;29;20067;-73
2022/01/24 14:00:12;;;;;;;45.88;26.60;;;;;;;4.70;100.00;103307.03;10017187;28;20557;-74
2022/01/24 14:05:09;;;;;;;48.70;27.23;;;;;;;4.70;100.00;103297.03;10028111;29;20521;-74
2022/01/24 14:10:11;;;;;;;49.47;26.08;;;;;;;4.68;100.00;103304.53;10008790;28;20513;-73
2022/01/24 14:15:19;;;;;;;49.88;27.35;;;;;;;4.67;100.00;103296.63;10021132;28;20498;-74
2022/01/24 14:20:18;;;;;;;49.38;26.92;;;;;;;4.72;100.00;103300.34;10021924;29;20403;-74
2022/01/24 14:25:26;;;;;;;56.13;30.77;;;;;;;4.68;100.00;103293.69;10030039;28;20445;-74
2022/01/24 14:30:26;;;;;;;45.30;22.95;;;;;;;4.63;100.00;103290.81;10025772;28;20065;-74
2022/01/24 14:35:23;;;;;;;45.20;26.10;;;;;;;4.60;100.00;103302.06;10051313;28;20117;-74
2022/01/24 14:40:36;;;;;;;51.25;27.30;;;;;;;4.60;100.00;103312.91;10028149;28;20051;-74
2022/01/24 14:45:33;;;;;;;43.35;24.30;;;;;;;4.60;100.00;103307.50;10035428;28;20103;-74
2022/01/24 14:50:30;;;;;;;42.72;24.88;;;;;;;4.59;100.00;103311.22;10031313;28;20145;-74
2022/01/24 14:55:27;;;;;;;39.95;22.77;;;;;;;4.48;100.00;103315.47;10020396;29;20103;-73
2022/01/24 15:00:26;;;;;;;44.33;26.05;;;;;;;4.67;100.00;103310.19;10029420;28;20067;-75
2022/01/24 15:05:23;;;;;;;39.65;23.25;;;;;;;4.69;100.00;103322.47;10030791;28;20118;-75
2022/01/24 15:10:19;;;;;;;39.78;23.58;;;;;;;4.58;100.00;103320.41;10056868;28;20047;-74
2022/01/24 15:15:19;;;;;;;42.40;24.02;;;;;;;4.54;100.00;103321.88;10010892;29;20134;-74
2022/01/24 15:25:34;;;;;;;42.33;22.90;;;;;;;4.50;100.00;103328.78;10024679;28;20058;-72
2022/01/24 15:30:33;;;;;;;42.42;25.23;;;;;;;4.66;100.00;103341.84;10036382;28;20590;-72
2022/01/24 15:35:30;;;;;;;45.65;25.13;;;;;;;4.57;100.00;103335.00;10022599;28;20052;-74
2022/01/24 15:40:28;;;;;;;43.33;24.63;;;;;;;4.52;100.00;103340.22;10039774;28;21539;-75
2022/01/24 15:50:31;;;;;;;33.40;19.98;;;;;;;4.55;100.00;103343.38;10019594;29;20421;-74
2022/01/24 15:55:32;;;;;;;29.17;16.85;;;;;;;4.52;100.00;103337.53;10020773;28;20048;-74
2022/01/24 16:00:42;;;;;;;29.40;16.30;;;;;;;4.50;100.00;103350.44;10016537;28;20529;-75
2022/01/24 16:05:39;;;;;;;28.15;17.10;;;;;;;4.47;100.00;103353.59;10028401;28;20100;-73
2022/01/24 16:10:36;;;;;;;29.90;18.50;;;;;;;4.59;100.00;103355.41;10019691;28;20684;-75
2022/01/24 16:15:33;;;;;;;23.45;14.77;;;;;;;4.53;100.00;103350.03;10039856;28;20390;-74
2022/01/24 16:21:25;;;;;;;23.63;15.77;;;;;;;4.67;100.00;103343.53;10042989;29;20066;-74
2022/01/24 16:25:54;;;;;;;24.67;15.27;;;;;;;4.70;100.00;103342.28;10027584;29;20131;-75
2022/01/24 16:30:58;;;;;;;26.42;16.40;;;;;;;4.63;100.00;103345.81;10017896;28;20067;-72
2022/01/24 16:35:58;;;;;;;27.23;15.63;;;;;;;4.63;100.00;103347.72;10015133;28;20043;-72
2022/01/24 16:41:04;;;;;;;28.05;16.23;;;;;;;4.64;100.00;103352.06;10014700;28;20044;-72
2022/01/24 16:51:03;;;;;;;25.80;15.77;;;;;;;4.70;100.00;103351.22;10020672;28;20078;-71
2022/01/24 16:56:00;;;;;;;24.20;14.73;;;;;;;4.63;100.00;103350.41;10015046;28;20103;-71
2022/01/24 17:00:58;;;;;;;27.23;15.45;;;;;;;4.59;100.00;103341.03;10023500;28;20048;-71
2022/01/24 17:05:54;;;;;;;26.95;15.77;;;;;;;4.55;100.00;103337.09;10042536;28;20062;-71
2022/01/24 17:10:54;;;;;;;27.63;16.48;;;;;;;4.61;100.00;103333.53;10026478;28;20078;-72
2022/01/24 17:15:53;;;;;;;27.55;15.82;;;;;;;4.54;100.00;103336.25;10023727;28;20048;-74
2022/01/24 17:20:50;;;;;;;26.13;15.75;;;;;;;4.51;100.00;103341.28;10032555;28;20436;-74
2022/01/24 17:25:48;;;;;;;27.90;16.52;;;;;;;4.64;100.00;103346.66;10020381;29;20572;-73
2022/01/24 17:30:44;;;;;;;30.67;17.90;;;;;;;4.66;100.00;103333.72;10009766;28;20044;-75
2022/01/24 17:35:43;;;;;;;30.00;17.40;;;;;;;4.59;100.00;103328.31;10037736;28;20132;-75
2022/01/24 17:40:39;;;;;;;27.10;14.95;;;;;;;4.38;100.00;103326.72;10024895;28;20391;-74
2022/01/24 17:45:36;;;;;;;30.77;17.00;;;;;;;4.56;100.00;103323.34;10019008;28;20114;-74
2022/01/24 17:50:35;;;;;;;25.42;15.40;;;;;;;4.74;100.00;103327.25;10041128;28;20591;-74
2022/01/24 17:55:31;;;;;;;30.27;16.15;;;;;;;4.83;100.00;103324.06;10009782;28;20044;-75
2022/01/24 18:00:28;;;;;;;29.52;16.83;;;;;;;4.87;100.00;103318.22;10028044;28;20079;-68
2022/01/24 18:05:25;;;;;;;29.02;17.33;;;;;;;4.94;100.00;103321.72;10028083;28;20054;-75
2022/01/24 18:10:22;;;;;;;28.38;16.48;;;;;;;4.96;100.00;103323.16;10028889;28;20082;-74
2022/01/24 18:15:21;;;;;;;28.98;18.02;;;;;;;4.90;100.00;103328.63;10008088;28;20568;-69
2022/01/24 18:20:42;;;;;;;29.23;16.73;;;;;;;4.82;100.00;103316.16;10014542;28;20052;-74
2022/01/24 18:25:45;;;;;;;26.50;17.10;;;;;;;4.66;100.00;103314.75;10035649;28;20062;-74
2022/01/24 18:30:43;;;;;;;29.65;17.33;;;;;;;4.51;100.00;103308.78;10016866;28;20043;-71
2022/01/24 18:35:41;;;;;;;33.38;20.65;;;;;;;4.46;100.00;103311.31;10017699;28;20075;-71
2022/01/24 18:40:39;;;;;;;34.63;20.38;;;;;;;4.53;100.00;103328.38;10012167;28;20066;-72
2022/01/24 18:45:35;;;;;;;31.80;20.00;;;;;;;4.62;100.00;103311.66;10070895;29;20048;-71
2022/01/24 18:50:34;;;;;;;34.22;19.02;;;;;;;4.60;100.00;103307.50;10023748;29;20127;-71
2022/01/24 18:55:30;;;;;;;31.35;19.25;;;;;;;4.62;100.00;103305.41;10007898;29;20493;-71
2022/01/24 19:00:28;;;;;;;32.58;20.05;;;;;;;4.62;100.00;103305.41;10045765;28;20047;-71
2022/01/24 19:05:28;;;;;;;34.58;19.13;;;;;;;4.63;100.00;103317.91;10029003;28;20089;-71
2022/01/24 19:10:24;;;;;;;32.17;19.83;;;;;;;4.63;100.00;103321.44;10026045;29;20075;-71
2022/01/24 19:15:26;;;;;;;37.50;20.38;;;;;;;4.67;100.00;103318.31;10029768;29;20084;-71
2022/01/24 19:25:39;;;;;;;33.55;19.52;;;;;;;4.63;100.00;103328.75;10016072;29;20047;-71
2022/01/24 19:30:35;;;;;;;32.97;18.75;;;;;;;4.64;100.00;103324.97;10025327;28;20059;-72
2022/01/24 19:35:32;;;;;;;33.80;22.10;;;;;;;4.67;100.00;103316.44;10016459;29;20044;-71
2022/01/24 19:40:28;;;;;;;37.40;19.17;;;;;;;4.70;100.00;103318.69;10037450;29;20093;-71
2022/01/24 19:45:27;;;;;;;32.47;19.08;;;;;;;4.53;100.00;103322.94;10037408;29;20678;-71
2022/01/24 19:50:27;;;;;;;30.65;19.30;;;;;;;4.68;100.00;103320.78;10021864;28;20230;-70
2022/01/24 19:55:34;;;;;;;35.45;21.15;;;;;;;4.66;100.00;103322.88;10025578;29;20686;-71
2022/01/24 20:00:31;;;;;;;33.70;20.38;;;;;;;4.69;100.00;103332.47;10025501;28;20051;-71
2022/01/24 20:05:27;;;;;;;31.77;18.90;;;;;;;4.64;100.00;103333.09;10033141;29;20047;-71
2022/01/24 20:10:25;;;;;;;33.67;21.10;;;;;;;4.59;100.00;103322.06;10028675;29;20483;-71
2022/01/24 20:15:22;;;;;;;36.13;21.40;;;;;;;4.63;100.00;103323.31;10028263;29;20143;-70
2022/01/24 20:20:21;;;;;;;39.65;21.73;;;;;;;4.47;100.00;103326.50;10031342;28;20074;-71
2022/01/24 20:25:28;;;;;;;35.45;20.23;;;;;;;4.57;100.00;103313.31;10045741;28;20086;-70
2022/01/24 20:30:25;;;;;;;39.67;21.88;;;;;;;4.64;100.00;103314.13;10015102;28;20086;-73
2022/01/24 20:35:27;;;;;;;39.65;21.88;;;;;;;4.60;100.00;103312.91;10007179;29;20060;-73
2022/01/24 20:40:24;;;;;;;38.97;23.38;;;;;;;4.58;100.00;103312.28;10021118;28;20763;-69
2022/01/24 20:45:20;;;;;;;36.00;22.60;;;;;;;4.54;100.00;103313.75;10039764;28;20048;-69
2022/01/24 20:50:18;;;;;;;38.30;21.40;;;;;;;4.57;100.00;103318.75;10018902;28;20047;-69
2022/01/24 20:55:15;;;;;;;41.38;23.95;;;;;;;4.41;100.00;103326.31;10039037;28;20114;-69
2022/01/24 21:00:12;;;;;;;40.28;22.25;;;;;;;4.59;100.00;103313.94;10024713;28;20074;-69
2022/01/24 21:05:09;;;;;;;37.83;21.52;;;;;;;4.58;100.00;103315.00;10034402;29;20048;-69
2022/01/24 21:10:10;;;;;;;37.67;21.95;;;;;;;4.53;100.00;103322.94;10026834;29;20060;-69
2022/01/24 21:15:08;;;;;;;41.43;23.40;;;;;;;4.52;100.00;103313.13;10032627;28;20082;-70
2022/01/24 21:20:05;;;;;;;40.97;23.35;;;;;;;4.69;100.00;103317.06;10048219;28;20047;-71
2022/01/24 21:25:03;;;;;;;38.42;23.23;;;;;;;4.71;100.00;103314.97;10045864;29;20079;-69
2022/01/24 21:30:00;;;;;;;43.47;23.95;;;;;;;4.71;100.00;103317.69;10047187;29;20048;-72
2022/01/24 21:39:53;;;;;;;39.17;23.25;;;;;;;4.68;100.00;103318.09;10028845;29;20044;-72
2022/01/24 21:44:50;;;;;;;41.50;25.25;;;;;;;4.66;100.00;103317.47;10042419;28;20044;-73
2022/01/24 21:49:47;;;;;;;39.42;22.75;;;;;;;4.59;100.00;103322.06;10055036;28;20130;-70
2022/01/24 21:54:43;;;;;;;40.95;24.10;;;;;;;4.59;100.00;103316.66;10042027;28;20064;-71
2022/01/24 21:59:43;;;;;;;38.78;23.83;;;;;;;4.48;100.00;103314.59;10029044;28;20055;-70
2022/01/24 22:04:39;;;;;;;44.92;25.17;;;;;;;4.47;100.00;103313.78;10027568;28;20103;-69
2022/01/24 22:09:36;;;;;;;40.97;23.95;;;;;;;4.50;100.00;103312.50;10056824;29;20074;-69
2022/01/24 22:14:43;;;;;;;39.33;22.15;;;;;;;4.43;100.00;103307.13;10022223;28;20506;-71
2022/01/24 22:19:39;;;;;;;42.53;26.00;;;;;;;4.50;100.00;103309.81;10038273;28;20119;-71
2022/01/24 22:24:35;;;;;;;37.33;22.63;;;;;;;4.61;100.00;103314.56;10016766;29;20137;-70
2022/01/24 22:29:32;;;;;;;43.97;26.38;;;;;;;4.54;100.00;103313.75;10033374;29;20036;-71
2022/01/24 22:34:29;;;;;;;43.88;24.23;;;;;;;4.54;100.00;103297.50;10034817;28;20110;-71
2022/01/24 22:39:26;;;;;;;41.22;24.20;;;;;;;4.42;100.00;103300.88;10021460;28;20103;-71
2022/01/24 22:44:22;;;;;;;44.88;25.67;;;;;;;4.55;100.00;103294.59;10042366;28;20055;-70
2022/01/24 22:49:19;;;;;;;42.88;23.88;;;;;;;4.51;100.00;103303.34;10039845;28;20044;-71
2022/01/24 22:54:15;;;;;;;43.38;24.70;;;;;;;4.46;100.00;103284.22;10075541;28;20102;-70
2022/01/24 22:59:12;;;;;;;46.08;27.45;;;;;;;4.50;100.00;103274.59;10040977;29;20071;-70
2022/01/24 23:04:08;;;;;;;50.80;25.80;;;;;;;4.41;100.00;103287.56;10039040;28;20078;-71
2022/01/24 23:09:28;;;;;;;48.35;26.38;;;;;;;4.38;100.00;103288.78;10048790;29;20131;-71
2022/01/24 23:19:39;;;;;;;48.15;27.15;;;;;;;4.35;100.00;103299.22;10039341;29;20040;-71
2022/01/24 23:24:43;;;;;;;49.63;27.10;;;;;;;4.41;100.00;103293.81;10008485;29;20043;-69
2022/01/24 23:29:42;;;;;;;55.35;29.25;;;;;;;4.42;100.00;103289.22;10048819;29;20071;-69
2022/01/24 23:39:44;;;;;;;48.65;26.55;;;;;;;4.39;100.00;103297.78;10036668;29;20052;-69
2022/01/24 23:44:42;;;;;;;50.70;26.63;;;;;;;4.40;100.00;103300.25;10039039;29;20078;-70
2022/01/24 23:49:39;;;;;;;52.30;25.83;;;;;;;4.37;100.00;103292.56;10035729;29;20465;-71
2022/01/24 23:54:35;;;;;;;54.15;26.80;;;;;;;4.30;100.00;103291.75;10020252;29;20044;-71
